sensor_id;sensor_type;location;lat;lon;timestamp;pressure;altitude;pressure_sealevel;temperature;humidity
41312;BME280;27061;41.648;24.568;2022-12-07T00:01:25;85800.22;;;2.69;72.03
41312;BME280;27061;41.648;24.568;2022-12-07T00:03:54;85797.28;;;2.55;72.86
41312;BME280;27061;41.648;24.568;2022-12-07T00:06:27;85747.66;;;2.22;72.61
41312;BME280;27061;41.648;24.568;2022-12-07T00:08:54;85813.97;;;2.75;72.76
41312;BME280;27061;41.648;24.568;2022-12-07T00:11:22;85818.16;;;2.82;72.83
41312;BME280;27061;41.648;24.568;2022-12-07T00:13:55;85795.41;;;2.68;72.75
41312;BME280;27061;41.648;24.568;2022-12-07T00:16:25;85785.13;;;2.66;72.26
41312;BME280;27061;41.648;24.568;2022-12-07T00:18:52;85805.69;;;2.69;72.67
41312;BME280;27061;41.648;24.568;2022-12-07T00:21:21;85738.19;;;2.28;72.92
41312;BME280;27061;41.648;24.568;2022-12-07T00:23:50;85813.84;;;2.67;73.13
41312;BME280;27061;41.648;24.568;2022-12-07T00:26:20;85752.97;;;2.10;73.63
41312;BME280;27061;41.648;24.568;2022-12-07T00:28:53;85806.44;;;2.26;75.00
41312;BME280;27061;41.648;24.568;2022-12-07T00:31:22;85776.25;;;2.15;73.92
41312;BME280;27061;41.648;24.568;2022-12-07T00:33:50;85809.53;;;2.50;73.79
41312;BME280;27061;41.648;24.568;2022-12-07T00:36:19;85821.97;;;2.61;73.53
41312;BME280;27061;41.648;24.568;2022-12-07T00:38:52;85826.09;;;2.62;74.07
41312;BME280;27061;41.648;24.568;2022-12-07T00:41:22;85792.97;;;2.38;74.14
41312;BME280;27061;41.648;24.568;2022-12-07T00:43:50;85771.03;;;2.32;73.85
41312;BME280;27061;41.648;24.568;2022-12-07T00:46:18;85819.44;;;2.75;73.74
41312;BME280;27061;41.648;24.568;2022-12-07T00:48:46;85816.72;;;2.77;73.89
41312;BME280;27061;41.648;24.568;2022-12-07T00:51:15;85802.78;;;2.57;73.82
41312;BME280;27061;41.648;24.568;2022-12-07T00:53:43;85802.88;;;2.65;73.81
41312;BME280;27061;41.648;24.568;2022-12-07T00:56:18;85787.72;;;2.56;73.85
41312;BME280;27061;41.648;24.568;2022-12-07T00:59:03;85809.94;;;2.82;73.07
41312;BME280;27061;41.648;24.568;2022-12-07T01:01:32;85816.13;;;2.83;73.43
41312;BME280;27061;41.648;24.568;2022-12-07T01:04:01;85810.56;;;2.77;73.71
41312;BME280;27061;41.648;24.568;2022-12-07T01:06:28;85811.25;;;2.77;73.78
41312;BME280;27061;41.648;24.568;2022-12-07T01:08:56;85782.25;;;2.54;73.45
41312;BME280;27061;41.648;24.568;2022-12-07T01:11:25;85805.91;;;2.85;73.55
41312;BME280;27061;41.648;24.568;2022-12-07T01:13:54;85790.50;;;2.58;73.88
41312;BME280;27061;41.648;24.568;2022-12-07T01:16:23;85777.31;;;2.42;74.47
41312;BME280;27061;41.648;24.568;2022-12-07T01:18:53;85801.47;;;2.60;74.48
41312;BME280;27061;41.648;24.568;2022-12-07T01:21:23;85794.63;;;2.59;74.62
41312;BME280;27061;41.648;24.568;2022-12-07T01:23:51;85784.94;;;2.50;74.68
41312;BME280;27061;41.648;24.568;2022-12-07T01:26:21;85790.03;;;2.76;74.09
41312;BME280;27061;41.648;24.568;2022-12-07T01:28:50;85789.44;;;2.81;73.85
41312;BME280;27061;41.648;24.568;2022-12-07T01:31:20;85767.38;;;2.67;74.30
41312;BME280;27061;41.648;24.568;2022-12-07T01:33:49;85754.78;;;2.44;74.36
41312;BME280;27061;41.648;24.568;2022-12-07T01:36:31;85765.94;;;2.60;74.48
41312;BME280;27061;41.648;24.568;2022-12-07T01:39:00;85776.97;;;2.68;74.34
41312;BME280;27061;41.648;24.568;2022-12-07T01:41:31;85775.69;;;2.75;74.42
41312;BME280;27061;41.648;24.568;2022-12-07T01:46:47;85771.59;;;2.76;73.46
41312;BME280;27061;41.648;24.568;2022-12-07T01:49:36;85770.19;;;2.71;73.66
41312;BME280;27061;41.648;24.568;2022-12-07T01:52:13;85733.03;;;2.52;73.90
41312;BME280;27061;41.648;24.568;2022-12-07T01:54:44;85763.38;;;2.74;74.06
41312;BME280;27061;41.648;24.568;2022-12-07T01:57:13;85760.56;;;2.68;73.77
41312;BME280;27061;41.648;24.568;2022-12-07T01:59:43;85760.50;;;2.62;74.60
41312;BME280;27061;41.648;24.568;2022-12-07T02:02:19;85735.78;;;2.52;74.52
41312;BME280;27061;41.648;24.568;2022-12-07T02:04:46;85715.00;;;2.31;74.83
41312;BME280;27061;41.648;24.568;2022-12-07T02:07:14;85723.34;;;2.41;74.80
41312;BME280;27061;41.648;24.568;2022-12-07T02:09:42;85732.97;;;2.48;74.85
41312;BME280;27061;41.648;24.568;2022-12-07T02:12:09;85722.81;;;2.52;74.23
41312;BME280;27061;41.648;24.568;2022-12-07T02:14:36;85740.03;;;2.67;73.88
41312;BME280;27061;41.648;24.568;2022-12-07T02:28:27;85758.59;;;2.75;73.79
41312;BME280;27061;41.648;24.568;2022-12-07T02:30:58;85728.84;;;2.45;74.07
41312;BME280;27061;41.648;24.568;2022-12-07T02:33:36;85759.31;;;2.75;74.20
41312;BME280;27061;41.648;24.568;2022-12-07T02:36:10;85724.91;;;2.58;73.89
41312;BME280;27061;41.648;24.568;2022-12-07T02:41:47;85755.34;;;2.88;73.72
41312;BME280;27061;41.648;24.568;2022-12-07T02:44:23;85751.91;;;2.86;73.68
41312;BME280;27061;41.648;24.568;2022-12-07T02:46:52;85753.31;;;2.91;73.35
41312;BME280;27061;41.648;24.568;2022-12-07T02:49:24;85720.19;;;2.63;73.33
41312;BME280;27061;41.648;24.568;2022-12-07T02:51:53;85742.97;;;2.81;73.34
41312;BME280;27061;41.648;24.568;2022-12-07T02:54:21;85747.09;;;2.84;73.46
41312;BME280;27061;41.648;24.568;2022-12-07T03:07:35;85728.63;;;2.83;73.86
41312;BME280;27061;41.648;24.568;2022-12-07T03:10:17;85747.16;;;2.90;73.74
41312;BME280;27061;41.648;24.568;2022-12-07T03:13:02;85723.66;;;2.67;74.06
41312;BME280;27061;41.648;24.568;2022-12-07T03:18:01;85750.66;;;2.97;73.56
41312;BME280;27061;41.648;24.568;2022-12-07T03:20:29;85748.59;;;2.98;74.24
41312;BME280;27061;41.648;24.568;2022-12-07T03:22:59;85701.09;;;2.65;74.05
41312;BME280;27061;41.648;24.568;2022-12-07T03:25:27;85713.97;;;2.58;74.41
41312;BME280;27061;41.648;24.568;2022-12-07T03:27:57;85720.63;;;2.43;75.09
41312;BME280;27061;41.648;24.568;2022-12-07T03:30:54;85748.41;;;2.79;75.10
41312;BME280;27061;41.648;24.568;2022-12-07T03:33:31;85745.06;;;2.85;74.72
41312;BME280;27061;41.648;24.568;2022-12-07T03:36:14;85720.03;;;2.50;75.00
41312;BME280;27061;41.648;24.568;2022-12-07T03:38:50;85739.97;;;2.61;75.32
41312;BME280;27061;41.648;24.568;2022-12-07T03:41:24;85740.16;;;2.77;75.42
41312;BME280;27061;41.648;24.568;2022-12-07T03:43:54;85727.75;;;2.68;75.18
41312;BME280;27061;41.648;24.568;2022-12-07T03:49:16;85736.03;;;2.74;75.77
41312;BME280;27061;41.648;24.568;2022-12-07T03:51:46;85737.91;;;2.60;75.89
41312;BME280;27061;41.648;24.568;2022-12-07T03:54:41;85746.69;;;2.52;76.33
41312;BME280;27061;41.648;24.568;2022-12-07T03:57:07;85748.22;;;2.63;76.44
41312;BME280;27061;41.648;24.568;2022-12-07T03:59:35;85746.81;;;2.62;76.65
41312;BME280;27061;41.648;24.568;2022-12-07T04:02:04;85744.72;;;2.58;77.20
41312;BME280;27061;41.648;24.568;2022-12-07T04:04:33;85741.41;;;2.64;76.45
41312;BME280;27061;41.648;24.568;2022-12-07T04:07:00;85737.31;;;2.67;76.59
41312;BME280;27061;41.648;24.568;2022-12-07T04:09:27;85741.41;;;2.66;76.71
41312;BME280;27061;41.648;24.568;2022-12-07T04:11:54;85687.69;;;2.31;76.90
41312;BME280;27061;41.648;24.568;2022-12-07T04:14:22;85741.50;;;2.76;76.98
41312;BME280;27061;41.648;24.568;2022-12-07T04:16:51;85736.06;;;2.76;76.87
41312;BME280;27061;41.648;24.568;2022-12-07T04:19:20;85732.69;;;2.80;76.24
41312;BME280;27061;41.648;24.568;2022-12-07T04:21:47;85683.72;;;2.44;76.70
41312;BME280;27061;41.648;24.568;2022-12-07T04:24:15;85708.41;;;2.50;76.39
41312;BME280;27061;41.648;24.568;2022-12-07T04:26:43;85731.81;;;2.63;76.27
41312;BME280;27061;41.648;24.568;2022-12-07T04:29:10;85699.19;;;2.21;76.60
41312;BME280;27061;41.648;24.568;2022-12-07T04:31:38;85705.47;;;2.32;77.28
41312;BME280;27061;41.648;24.568;2022-12-07T04:34:06;85652.50;;;2.01;76.53
41312;BME280;27061;41.648;24.568;2022-12-07T04:36:33;85728.97;;;2.53;76.34
41312;BME280;27061;41.648;24.568;2022-12-07T04:39:00;85720.66;;;2.47;76.31
41312;BME280;27061;41.648;24.568;2022-12-07T04:41:28;85703.06;;;2.06;77.46
41312;BME280;27061;41.648;24.568;2022-12-07T04:43:55;85693.03;;;2.22;77.43
41312;BME280;27061;41.648;24.568;2022-12-07T04:46:24;85675.28;;;2.24;76.93
41312;BME280;27061;41.648;24.568;2022-12-07T04:48:52;85723.53;;;2.57;77.25
41312;BME280;27061;41.648;24.568;2022-12-07T04:51:22;85716.75;;;2.62;76.41
41312;BME280;27061;41.648;24.568;2022-12-07T04:53:50;85713.28;;;2.57;76.33
41312;BME280;27061;41.648;24.568;2022-12-07T04:56:18;85676.72;;;2.29;76.67
41312;BME280;27061;41.648;24.568;2022-12-07T04:58:46;85718.13;;;2.61;76.65
41312;BME280;27061;41.648;24.568;2022-12-07T05:01:14;85682.94;;;2.35;76.74
41312;BME280;27061;41.648;24.568;2022-12-07T05:03:42;85686.41;;;2.38;76.39
41312;BME280;27061;41.648;24.568;2022-12-07T05:06:09;85696.84;;;2.53;76.26
41312;BME280;27061;41.648;24.568;2022-12-07T05:08:40;85714.19;;;2.74;76.24
41312;BME280;27061;41.648;24.568;2022-12-07T05:11:07;85688.00;;;2.57;76.39
41312;BME280;27061;41.648;24.568;2022-12-07T05:13:35;85714.75;;;2.67;76.73
41312;BME280;27061;41.648;24.568;2022-12-07T05:16:02;85688.53;;;2.43;77.12
41312;BME280;27061;41.648;24.568;2022-12-07T05:18:30;85656.91;;;2.28;77.02
41312;BME280;27061;41.648;24.568;2022-12-07T05:20:57;85661.63;;;2.24;76.75
41312;BME280;27061;41.648;24.568;2022-12-07T05:23:24;85708.66;;;2.70;76.63
41312;BME280;27061;41.648;24.568;2022-12-07T05:25:51;85712.06;;;2.71;76.93
41312;BME280;27061;41.648;24.568;2022-12-07T05:28:18;85698.34;;;2.65;76.70
41312;BME280;27061;41.648;24.568;2022-12-07T05:30:45;85674.22;;;2.47;76.89
41312;BME280;27061;41.648;24.568;2022-12-07T05:33:12;85714.25;;;2.82;76.50
41312;BME280;27061;41.648;24.568;2022-12-07T05:35:39;85711.56;;;2.86;75.79
41312;BME280;27061;41.648;24.568;2022-12-07T05:38:07;85699.16;;;2.77;75.89
41312;BME280;27061;41.648;24.568;2022-12-07T05:40:34;85712.31;;;2.91;75.98
41312;BME280;27061;41.648;24.568;2022-12-07T05:43:00;85675.72;;;2.58;76.08
41312;BME280;27061;41.648;24.568;2022-12-07T05:45:30;85701.25;;;2.81;76.19
41312;BME280;27061;41.648;24.568;2022-12-07T05:47:57;85706.09;;;2.86;75.90
41312;BME280;27061;41.648;24.568;2022-12-07T05:50:25;85708.88;;;2.90;75.96
41312;BME280;27061;41.648;24.568;2022-12-07T05:52:59;85688.22;;;2.77;75.88
41312;BME280;27061;41.648;24.568;2022-12-07T05:55:26;85722.75;;;3.07;75.46
41312;BME280;27061;41.648;24.568;2022-12-07T05:57:53;85698.00;;;2.94;75.51
41312;BME280;27061;41.648;24.568;2022-12-07T06:00:39;85710.94;;;2.92;74.86
41312;BME280;27061;41.648;24.568;2022-12-07T06:03:06;85733.69;;;3.09;75.02
41312;BME280;27061;41.648;24.568;2022-12-07T06:05:33;85738.66;;;3.24;74.55
41312;BME280;27061;41.648;24.568;2022-12-07T06:08:00;85740.63;;;3.18;74.69
41312;BME280;27061;41.648;24.568;2022-12-07T06:10:31;85718.59;;;3.04;75.28
41312;BME280;27061;41.648;24.568;2022-12-07T06:12:59;85713.81;;;3.04;75.22
41312;BME280;27061;41.648;24.568;2022-12-07T06:15:26;85743.44;;;3.24;75.08
41312;BME280;27061;41.648;24.568;2022-12-07T06:17:52;85737.97;;;3.26;75.47
41312;BME280;27061;41.648;24.568;2022-12-07T06:20:19;85720.81;;;3.19;75.08
41312;BME280;27061;41.648;24.568;2022-12-07T06:22:46;85731.75;;;3.19;75.25
41312;BME280;27061;41.648;24.568;2022-12-07T06:25:13;85747.63;;;3.33;75.55
41312;BME280;27061;41.648;24.568;2022-12-07T06:27:40;85730.41;;;3.22;75.60
41312;BME280;27061;41.648;24.568;2022-12-07T06:30:07;85720.09;;;3.15;75.67
41312;BME280;27061;41.648;24.568;2022-12-07T06:32:36;85728.38;;;3.25;75.68
41312;BME280;27061;41.648;24.568;2022-12-07T06:35:04;85728.34;;;3.21;75.95
41312;BME280;27061;41.648;24.568;2022-12-07T06:37:31;85742.16;;;3.35;75.94
41312;BME280;27061;41.648;24.568;2022-12-07T06:39:58;85728.47;;;3.33;75.98
41312;BME280;27061;41.648;24.568;2022-12-07T06:42:26;85749.84;;;3.51;76.12
41312;BME280;27061;41.648;24.568;2022-12-07T06:44:53;85725.69;;;3.27;76.27
41312;BME280;27061;41.648;24.568;2022-12-07T06:47:20;85755.31;;;3.51;76.30
41312;BME280;27061;41.648;24.568;2022-12-07T06:50:07;85741.72;;;3.59;76.87
41312;BME280;27061;41.648;24.568;2022-12-07T06:52:34;85727.84;;;3.41;77.13
41312;BME280;27061;41.648;24.568;2022-12-07T06:55:01;85756.66;;;3.50;77.69
41312;BME280;27061;41.648;24.568;2022-12-07T06:57:29;85721.59;;;3.30;77.97
41312;BME280;27061;41.648;24.568;2022-12-07T06:59:55;85725.09;;;3.41;78.05
41312;BME280;27061;41.648;24.568;2022-12-07T07:02:22;85755.44;;;3.65;77.57
41312;BME280;27061;41.648;24.568;2022-12-07T07:04:49;85756.09;;;3.61;78.17
41312;BME280;27061;41.648;24.568;2022-12-07T07:07:16;85697.63;;;3.26;78.06
41312;BME280;27061;41.648;24.568;2022-12-07T07:09:43;85731.41;;;3.55;78.09
41312;BME280;27061;41.648;24.568;2022-12-07T07:12:10;85723.19;;;3.53;77.88
41312;BME280;27061;41.648;24.568;2022-12-07T07:14:37;85753.50;;;3.76;77.91
41312;BME280;27061;41.648;24.568;2022-12-07T07:17:04;85753.53;;;3.80;77.42
41312;BME280;27061;41.648;24.568;2022-12-07T07:19:31;85724.66;;;3.64;77.06
41312;BME280;27061;41.648;24.568;2022-12-07T07:21:58;85758.34;;;3.83;77.21
41312;BME280;27061;41.648;24.568;2022-12-07T07:24:25;85753.53;;;3.80;77.09
41312;BME280;27061;41.648;24.568;2022-12-07T07:26:52;85756.34;;;3.88;77.03
41312;BME280;27061;41.648;24.568;2022-12-07T07:29:19;85678.53;;;3.33;76.80
41312;BME280;27061;41.648;24.568;2022-12-07T07:31:46;85706.13;;;3.61;76.49
41312;BME280;27061;41.648;24.568;2022-12-07T07:34:13;85713.03;;;3.66;76.65
41312;BME280;27061;41.648;24.568;2022-12-07T07:36:40;85743.28;;;3.80;76.71
41312;BME280;27061;41.648;24.568;2022-12-07T07:39:07;85750.28;;;4.01;76.97
41312;BME280;27061;41.648;24.568;2022-12-07T07:41:34;85739.19;;;3.85;77.07
41312;BME280;27061;41.648;24.568;2022-12-07T07:44:02;85696.56;;;3.62;77.28
41312;BME280;27061;41.648;24.568;2022-12-07T07:46:29;85760.63;;;4.11;76.88
41312;BME280;27061;41.648;24.568;2022-12-07T07:48:56;85724.88;;;3.95;76.47
41312;BME280;27061;41.648;24.568;2022-12-07T07:51:23;85727.66;;;3.97;77.11
41312;BME280;27061;41.648;24.568;2022-12-07T07:53:50;85723.50;;;3.94;77.69
41312;BME280;27061;41.648;24.568;2022-12-07T07:56:17;85759.38;;;4.26;78.10
41312;BME280;27061;41.648;24.568;2022-12-07T07:58:47;85733.22;;;4.09;78.03
41312;BME280;27061;41.648;24.568;2022-12-07T08:01:14;85709.81;;;3.92;77.81
41312;BME280;27061;41.648;24.568;2022-12-07T08:03:43;85733.94;;;4.14;77.71
41312;BME280;27061;41.648;24.568;2022-12-07T08:06:10;85734.63;;;4.14;78.19
41312;BME280;27061;41.648;24.568;2022-12-07T08:08:37;85753.97;;;4.36;78.29
41312;BME280;27061;41.648;24.568;2022-12-07T08:11:11;85763.66;;;4.52;78.75
41312;BME280;27061;41.648;24.568;2022-12-07T08:13:38;85750.56;;;4.42;78.72
41312;BME280;27061;41.648;24.568;2022-12-07T08:16:10;85764.38;;;4.58;79.16
41312;BME280;27061;41.648;24.568;2022-12-07T08:18:39;85738.16;;;4.29;79.15
41312;BME280;27061;41.648;24.568;2022-12-07T08:21:08;85717.47;;;4.10;79.77
41312;BME280;27061;41.648;24.568;2022-12-07T08:23:36;85736.19;;;4.41;79.27
41312;BME280;27061;41.648;24.568;2022-12-07T08:26:08;85772.00;;;4.70;79.25
41312;BME280;27061;41.648;24.568;2022-12-07T08:28:36;85763.19;;;4.86;77.55
41312;BME280;27061;41.648;24.568;2022-12-07T08:31:05;85768.66;;;4.84;78.07
41312;BME280;27061;41.648;24.568;2022-12-07T08:33:34;85749.34;;;4.67;77.98
41312;BME280;27061;41.648;24.568;2022-12-07T08:36:03;85772.09;;;4.86;78.25
41312;BME280;27061;41.648;24.568;2022-12-07T08:38:31;85750.09;;;4.78;78.42
41312;BME280;27061;41.648;24.568;2022-12-07T08:40:58;85747.34;;;4.76;78.94
41312;BME280;27061;41.648;24.568;2022-12-07T08:43:25;85753.56;;;4.89;79.14
41312;BME280;27061;41.648;24.568;2022-12-07T08:48:45;85776.34;;;5.13;78.35
41312;BME280;27061;41.648;24.568;2022-12-07T08:51:13;85739.22;;;4.98;77.74
41312;BME280;27061;41.648;24.568;2022-12-07T08:53:41;85753.00;;;5.08;76.39
41312;BME280;27061;41.648;24.568;2022-12-07T08:56:09;85759.91;;;5.30;76.61
41312;BME280;27061;41.648;24.568;2022-12-07T08:58:37;85768.22;;;5.40;75.86
41312;BME280;27061;41.648;24.568;2022-12-07T09:01:05;85751.03;;;5.35;75.55
41312;BME280;27061;41.648;24.568;2022-12-07T09:03:32;85750.34;;;5.41;76.37
41312;BME280;27061;41.648;24.568;2022-12-07T09:05:59;85762.78;;;5.58;76.46
41312;BME280;27061;41.648;24.568;2022-12-07T09:08:33;85761.41;;;5.63;76.75
41312;BME280;27061;41.648;24.568;2022-12-07T09:11:01;85742.84;;;5.53;76.41
41312;BME280;27061;41.648;24.568;2022-12-07T09:13:28;85734.56;;;5.41;77.50
41312;BME280;27061;41.648;24.568;2022-12-07T09:15:55;85736.00;;;5.61;77.39
41312;BME280;27061;41.648;24.568;2022-12-07T09:18:23;85749.13;;;5.95;75.47
41312;BME280;27061;41.648;24.568;2022-12-07T09:20:51;85749.13;;;5.99;74.65
41312;BME280;27061;41.648;24.568;2022-12-07T09:23:18;85685.88;;;5.64;75.67
41312;BME280;27061;41.648;24.568;2022-12-07T09:25:45;85709.25;;;5.85;76.12
41312;BME280;27061;41.648;24.568;2022-12-07T09:28:12;85701.72;;;5.82;76.80
41312;BME280;27061;41.648;24.568;2022-12-07T09:30:39;85721.00;;;6.14;77.48
41312;BME280;27061;41.648;24.568;2022-12-07T09:33:25;85737.47;;;6.33;77.63
41312;BME280;27061;41.648;24.568;2022-12-07T09:35:52;85709.31;;;6.12;78.49
41312;BME280;27061;41.648;24.568;2022-12-07T09:38:20;85720.28;;;6.26;78.51
41312;BME280;27061;41.648;24.568;2022-12-07T09:40:47;85703.81;;;6.22;78.17
41312;BME280;27061;41.648;24.568;2022-12-07T09:43:19;85727.84;;;6.54;77.83
41312;BME280;27061;41.648;24.568;2022-12-07T09:45:49;85705.84;;;6.50;76.93
41312;BME280;27061;41.648;24.568;2022-12-07T09:48:20;85671.47;;;6.27;76.58
41312;BME280;27061;41.648;24.568;2022-12-07T09:50:49;85720.25;;;6.75;75.76
41312;BME280;27061;41.648;24.568;2022-12-07T09:53:37;85698.25;;;6.63;74.49
41312;BME280;27061;41.648;24.568;2022-12-07T09:56:05;85686.56;;;6.58;74.40
41312;BME280;27061;41.648;24.568;2022-12-07T09:58:33;85714.06;;;6.76;74.47
41312;BME280;27061;41.648;24.568;2022-12-07T10:01:18;85705.13;;;6.78;74.57
41312;BME280;27061;41.648;24.568;2022-12-07T10:03:49;85711.94;;;6.91;74.12
41312;BME280;27061;41.648;24.568;2022-12-07T10:06:17;85699.59;;;6.84;73.87
41312;BME280;27061;41.648;24.568;2022-12-07T10:08:45;85690.66;;;6.81;74.10
41312;BME280;27061;41.648;24.568;2022-12-07T10:11:12;85700.94;;;6.93;74.17
41312;BME280;27061;41.648;24.568;2022-12-07T10:13:44;85702.31;;;6.96;73.94
41312;BME280;27061;41.648;24.568;2022-12-07T10:16:34;85696.78;;;7.00;73.45
41312;BME280;27061;41.648;24.568;2022-12-07T10:19:31;85700.94;;;6.93;73.56
41312;BME280;27061;41.648;24.568;2022-12-07T10:24:29;85641.91;;;6.45;71.36
41312;BME280;27061;41.648;24.568;2022-12-07T10:26:58;85691.38;;;6.66;72.06
41312;BME280;27061;41.648;24.568;2022-12-07T10:29:37;85680.34;;;6.74;72.10
41312;BME280;27061;41.648;24.568;2022-12-07T10:34:52;85681.66;;;6.99;72.37
41312;BME280;27061;41.648;24.568;2022-12-07T10:37:41;85644.59;;;6.74;72.35
41312;BME280;27061;41.648;24.568;2022-12-07T10:49:03;85656.22;;;6.94;71.85
41312;BME280;27061;41.648;24.568;2022-12-07T11:07:46;85664.59;;;6.40;71.19
41312;BME280;27061;41.648;24.568;2022-12-07T11:10:33;85632.28;;;6.46;70.77
41312;BME280;27061;41.648;24.568;2022-12-07T11:16:31;85663.13;;;6.85;71.63
41312;BME280;27061;41.648;24.568;2022-12-07T11:22:04;85626.78;;;6.42;71.55
41312;BME280;27061;41.648;24.568;2022-12-07T11:36:02;85660.97;;;7.06;71.58
41312;BME280;27061;41.648;24.568;2022-12-07T11:38:48;85649.94;;;7.10;72.73
41312;BME280;27061;41.648;24.568;2022-12-07T11:41:22;85641.00;;;7.14;71.76
41312;BME280;27061;41.648;24.568;2022-12-07T11:44:06;85596.38;;;6.89;72.21
41312;BME280;27061;41.648;24.568;2022-12-07T11:46:47;85641.66;;;7.18;73.13
41312;BME280;27061;41.648;24.568;2022-12-07T11:52:06;85636.13;;;7.22;73.08
41312;BME280;27061;41.648;24.568;2022-12-07T11:54:42;85610.00;;;7.15;69.35
41312;BME280;27061;41.648;24.568;2022-12-07T11:57:19;85636.75;;;7.33;71.39
41312;BME280;27061;41.648;24.568;2022-12-07T11:59:52;85642.88;;;7.50;68.66
41312;BME280;27061;41.648;24.568;2022-12-07T12:02:32;85605.81;;;7.28;67.70
41312;BME280;27061;41.648;24.568;2022-12-07T12:05:22;85590.00;;;7.21;69.51
41312;BME280;27061;41.648;24.568;2022-12-07T12:22:59;85612.66;;;7.40;65.60
41312;BME280;27061;41.648;24.568;2022-12-07T12:25:30;85607.09;;;7.46;64.80
41312;BME280;27061;41.648;24.568;2022-12-07T12:27:59;85608.56;;;7.30;66.15
41312;BME280;27061;41.648;24.568;2022-12-07T12:30:32;85605.72;;;7.43;65.35
41312;BME280;27061;41.648;24.568;2022-12-07T12:33:26;85615.41;;;7.35;67.48
41312;BME280;27061;41.648;24.568;2022-12-07T12:46:52;85595.25;;;7.67;64.60
41312;BME280;27061;41.648;24.568;2022-12-07T12:51:49;85567.84;;;7.43;64.72
41312;BME280;27061;41.648;24.568;2022-12-07T12:54:23;85596.66;;;7.62;66.46
41312;BME280;27061;41.648;24.568;2022-12-07T13:02:55;85604.28;;;7.56;64.47
41312;BME280;27061;41.648;24.568;2022-12-07T13:05:27;85565.78;;;7.48;64.45
41312;BME280;27061;41.648;24.568;2022-12-07T13:10:25;85600.13;;;7.55;64.40
41312;BME280;27061;41.648;24.568;2022-12-07T13:13:25;85594.59;;;7.61;64.09
41312;BME280;27061;41.648;24.568;2022-12-07T13:18:41;85557.72;;;7.13;64.32
41312;BME280;27061;41.648;24.568;2022-12-07T13:31:35;85604.53;;;7.11;65.70
41312;BME280;27061;41.648;24.568;2022-12-07T13:34:03;85598.25;;;7.23;65.45
41312;BME280;27061;41.648;24.568;2022-12-07T13:36:37;85600.38;;;7.16;65.78
41312;BME280;27061;41.648;24.568;2022-12-07T13:39:34;85592.13;;;7.16;66.28
41312;BME280;27061;41.648;24.568;2022-12-07T13:42:14;85568.09;;;7.07;65.50
41312;BME280;27061;41.648;24.568;2022-12-07T13:44:44;85563.31;;;6.99;65.94
41312;BME280;27061;41.648;24.568;2022-12-07T13:47:18;85583.88;;;7.12;67.58
41312;BME280;27061;41.648;24.568;2022-12-07T13:49:50;85542.81;;;6.72;69.03
41312;BME280;27061;41.648;24.568;2022-12-07T13:52:29;85589.38;;;7.10;66.17
41312;BME280;27061;41.648;24.568;2022-12-07T13:55:05;85594.88;;;7.16;66.38
41312;BME280;27061;41.648;24.568;2022-12-07T13:57:40;85498.94;;;6.45;65.89
41312;BME280;27061;41.648;24.568;2022-12-07T14:00:17;85582.47;;;7.15;66.65
41312;BME280;27061;41.648;24.568;2022-12-07T14:03:04;85594.88;;;7.18;67.27
41312;BME280;27061;41.648;24.568;2022-12-07T14:06:23;85584.59;;;7.09;65.90
41312;BME280;27061;41.648;24.568;2022-12-07T14:09:14;85594.88;;;7.16;67.17
41312;BME280;27061;41.648;24.568;2022-12-07T14:11:44;85604.47;;;7.23;67.22
41312;BME280;27061;41.648;24.568;2022-12-07T14:14:17;85597.56;;;7.30;66.17
41312;BME280;27061;41.648;24.568;2022-12-07T14:16:56;85605.84;;;7.26;65.22
41312;BME280;27061;41.648;24.568;2022-12-07T14:27:57;85603.13;;;7.18;67.74
41312;BME280;27061;41.648;24.568;2022-12-07T14:30:29;85557.78;;;7.01;67.18
41312;BME280;27061;41.648;24.568;2022-12-07T14:32:59;85597.72;;;6.98;68.74
41312;BME280;27061;41.648;24.568;2022-12-07T14:35:28;85579.78;;;7.09;68.28
41312;BME280;27061;41.648;24.568;2022-12-07T14:37:55;85564.75;;;6.82;68.65
41312;BME280;27061;41.648;24.568;2022-12-07T14:40:25;85581.81;;;7.11;68.54
41312;BME280;27061;41.648;24.568;2022-12-07T14:43:05;85586.63;;;7.16;68.21
41312;BME280;27061;41.648;24.568;2022-12-07T14:45:33;85573.56;;;7.11;68.09
41312;BME280;27061;41.648;24.568;2022-12-07T14:48:00;85596.88;;;7.26;67.21
41312;BME280;27061;41.648;24.568;2022-12-07T14:50:52;85551.69;;;6.84;67.03
41312;BME280;27061;41.648;24.568;2022-12-07T14:53:45;85592.13;;;7.10;68.00
41312;BME280;27061;41.648;24.568;2022-12-07T14:56:19;85584.66;;;6.96;68.63
41312;BME280;27061;41.648;24.568;2022-12-07T14:58:46;85575.03;;;6.89;68.22
41312;BME280;27061;41.648;24.568;2022-12-07T15:01:14;85535.38;;;6.40;68.63
41312;BME280;27061;41.648;24.568;2022-12-07T15:03:41;85529.22;;;6.29;69.09
41312;BME280;27061;41.648;24.568;2022-12-07T15:06:13;85602.56;;;6.89;68.78
41312;BME280;27061;41.648;24.568;2022-12-07T15:08:41;85529.88;;;6.36;69.22
41312;BME280;27061;41.648;24.568;2022-12-07T15:11:12;85585.41;;;6.85;69.00
41312;BME280;27061;41.648;24.568;2022-12-07T15:13:39;85541.50;;;6.52;68.88
41312;BME280;27061;41.648;24.568;2022-12-07T15:16:25;85603.22;;;6.98;68.90
41312;BME280;27061;41.648;24.568;2022-12-07T15:18:54;85580.53;;;6.89;68.73
41312;BME280;27061;41.648;24.568;2022-12-07T15:21:42;85552.47;;;6.65;68.97
41312;BME280;27061;41.648;24.568;2022-12-07T15:24:11;85593.66;;;6.87;69.44
41312;BME280;27061;41.648;24.568;2022-12-07T15:26:40;85601.84;;;6.93;69.47
41312;BME280;27061;41.648;24.568;2022-12-07T15:29:07;85597.72;;;6.98;69.40
41312;BME280;27061;41.648;24.568;2022-12-07T15:31:35;85605.97;;;6.96;69.31
41312;BME280;27061;41.648;24.568;2022-12-07T15:34:23;85579.91;;;6.79;69.08
41312;BME280;27061;41.648;24.568;2022-12-07T15:36:51;85594.28;;;6.97;68.82
41312;BME280;27061;41.648;24.568;2022-12-07T15:39:18;85600.44;;;7.02;69.21
41312;BME280;27061;41.648;24.568;2022-12-07T15:41:45;85586.78;;;6.86;69.64
41312;BME280;27061;41.648;24.568;2022-12-07T15:44:13;85593.66;;;6.83;69.75
41312;BME280;27061;41.648;24.568;2022-12-07T15:46:59;85610.81;;;6.91;69.94